Time;durP1;ratioP1;P1;durP2;ratioP2;P2;SDS_P1;SDS_P2;PMS_P1;PMS_P2;Temp;Humidity;BMP_temperature;BMP_pressure;BME280_temperature;BME280_humidity;BME280_pressure;Samples;Min_cycle;Max_cycle;Signal;HPM_P1;HPM_P2
2022/06/18 00:00:22;;;;;;;15.55;9.63;;;;;;;13.84;80.23;99337.53;4953013;29;20043;-90
2022/06/18 00:02:50;;;;;;;14.30;9.40;;;;;;;13.76;79.76;99320.00;4954135;29;20179;-87
2022/06/18 00:05:18;;;;;;;18.52;10.13;;;;;;;13.83;79.98;99342.22;4922387;29;20043;-90
2022/06/18 00:07:52;;;;;;;19.15;9.32;;;;;;;13.69;79.41;99324.41;4922216;29;20047;-90
2022/06/18 00:10:28;;;;;;;20.00;9.27;;;;;;;13.76;79.53;99341.16;4953019;29;20526;-88
2022/06/18 00:15:42;;;;;;;16.48;8.63;;;;;;;13.76;79.67;99341.97;4934717;29;20039;-89
2022/06/18 00:18:13;;;;;;;20.23;8.25;;;;;;;13.77;79.69;99345.50;4922421;29;20101;-89
2022/06/18 00:20:40;;;;;;;22.42;9.23;;;;;;;13.82;79.54;99362.63;4937009;29;20040;-89
2022/06/18 00:23:10;;;;;;;;;;;;;;;14.01;79.57;99397.09;4937268;29;20065;-88
2022/06/18 00:28:15;;;;;;;16.20;7.70;;;;;;;13.67;79.17;99341.22;4950924;29;20047;-90
2022/06/18 00:30:41;;;;;;;11.30;6.90;;;;;;;13.65;78.95;99342.69;4937984;29;20070;-91
2022/06/18 00:33:08;;;;;;;14.85;6.78;;;;;;;13.92;78.66;99380.66;4922118;29;20054;-90
2022/06/18 00:35:35;;;;;;;10.88;6.07;;;;;;;13.71;78.26;99344.09;4905886;29;20047;-91
2022/06/18 00:38:04;;;;;;;14.65;6.15;;;;;;;14.03;78.17;99383.81;4921594;29;20035;-90
2022/06/18 00:40:36;;;;;;;13.30;6.70;;;;;;;13.78;77.87;99339.69;4953856;29;20122;-90
2022/06/18 00:43:07;;;;;;;16.10;6.70;;;;;;;13.84;78.01;99343.88;4953605;29;20062;-91
2022/06/18 00:45:34;;;;;;;9.75;6.53;;;;;;;14.11;77.86;99391.22;4937956;29;20039;-91
2022/06/18 00:48:13;;;;;;;11.73;6.18;;;;;;;13.76;77.85;99332.91;4938224;29;20385;-92
2022/06/18 00:51:00;;;;;;;10.35;6.68;;;;;;;14.18;77.68;99398.91;4906109;29;20428;-90
2022/06/18 00:53:33;;;;;;;10.63;6.65;;;;;;;14.09;77.41;99396.22;4937501;29;20090;-91
2022/06/18 00:56:10;;;;;;;11.90;7.10;;;;;;;13.63;77.86;99337.53;4954369;29;20039;-91
2022/06/18 00:58:58;;;;;;;15.50;7.10;;;;;;;13.81;77.92;99374.75;4915969;29;20052;-91
2022/06/18 01:01:35;;;;;;;11.27;7.28;;;;;;;14.01;77.90;99408.09;4915553;29;20044;-95
2022/06/18 01:04:26;;;;;;;12.95;7.00;;;;;;;13.58;77.98;99348.72;4931247;29;20047;-91
2022/06/18 01:07:03;;;;;;;12.82;7.53;;;;;;;13.72;78.15;99379.50;4915584;29;20410;-90
2022/06/18 01:09:30;;;;;;;12.77;7.45;;;;;;;13.79;77.82;99385.25;4931624;29;20044;-89
2022/06/18 01:11:58;;;;;;;13.65;6.97;;;;;;;13.62;77.80;99374.38;4899729;29;20087;-91
2022/06/18 01:14:27;;;;;;;14.45;7.43;;;;;;;14.02;77.57;99426.19;4915019;29;20079;-90
2022/06/18 01:16:59;;;;;;;12.55;6.00;;;;;;;14.05;77.17;99425.53;4933418;29;20106;-90
2022/06/18 01:19:34;;;;;;;11.70;6.60;;;;;;;14.12;77.24;99436.00;4901945;29;20048;-90
2022/06/18 01:22:09;;;;;;;10.43;6.35;;;;;;;13.81;77.18;99385.75;4916740;29;20055;-90
2022/06/18 01:24:40;;;;;;;9.52;6.45;;;;;;;13.93;77.34;99407.00;4916785;29;20040;-90
2022/06/18 01:27:10;;;;;;;11.27;6.05;;;;;;;13.90;77.14;99401.38;4901974;29;20040;-90
2022/06/18 01:29:37;;;;;;;8.32;5.95;;;;;;;13.80;77.27;99386.88;4901557;29;20056;-89
2022/06/18 01:32:07;;;;;;;15.63;5.82;;;;;;;13.81;76.70;99382.19;4900856;29;20050;-89
2022/06/18 01:34:35;;;;;;;8.15;5.45;;;;;;;13.85;76.76;99383.13;4917729;29;20048;-90
2022/06/18 01:37:04;;;;;;;8.38;5.53;;;;;;;14.27;76.36;99441.72;4901385;29;20115;-89
2022/06/18 01:39:36;;;;;;;9.10;5.80;;;;;;;13.98;76.29;99403.25;4917080;29;20413;-91
2022/06/18 01:42:20;;;;;;;11.80;6.00;;;;;;;14.18;76.03;99418.97;4901085;29;20064;-90
2022/06/18 01:44:56;;;;;;;10.10;6.07;;;;;;;14.01;75.72;99402.59;4917143;29;20075;-88
2022/06/18 01:47:37;;;;;;;13.00;8.35;;;;;;;13.90;76.78;99393.91;4901548;29;20082;-90
2022/06/18 01:50:12;;;;;;;25.13;8.95;;;;;;;14.19;77.49;99442.56;4937413;29;20048;-91
2022/06/18 01:52:50;;;;;;;18.65;8.85;;;;;;;13.76;77.74;99394.16;4905144;29;20047;-91
2022/06/18 01:55:31;;;;;;;19.10;9.13;;;;;;;13.96;78.02;99431.06;4890124;29;20070;-90
2022/06/18 01:58:09;;;;;;;12.65;7.80;;;;;;;13.80;78.60;99414.34;4918860;29;20078;-90
2022/06/18 02:00:35;;;;;;;15.45;9.45;;;;;;;13.43;78.84;99374.78;4935932;29;20047;-90
2022/06/18 02:03:04;;;;;;;20.17;9.73;;;;;;;13.75;79.00;99433.78;4909601;29;20047;-89
2022/06/18 02:05:30;;;;;;;21.45;9.63;;;;;;;14.01;79.13;99452.88;4908082;29;20103;-89
2022/06/18 02:07:59;;;;;;;12.65;8.65;;;;;;;13.89;78.69;99424.50;4938797;29;20036;-88
2022/06/18 02:10:32;;;;;;;18.20;8.82;;;;;;;14.15;78.69;99463.63;4968396;29;20051;-89
2022/06/18 02:13:02;;;;;;;20.38;9.25;;;;;;;13.91;78.58;99413.97;4956011;29;20036;-90
2022/06/18 02:15:51;;;;;;;24.50;8.77;;;;;;;13.94;78.58;99411.38;4907222;29;20075;-89
2022/06/18 02:18:19;;;;;;;20.02;9.20;;;;;;;13.93;78.03;99411.69;4936704;29;20044;-90
2022/06/18 02:20:51;;;;;;;20.35;8.43;;;;;;;14.28;78.14;99459.81;4951757;29;20103;-90
2022/06/18 02:23:20;;;;;;;15.80;8.38;;;;;;;14.24;78.04;99455.31;4928551;29;20038;-90
2022/06/18 02:25:47;;;;;;;19.27;8.25;;;;;;;14.05;78.21;99428.28;4921401;29;20048;-90
2022/06/18 02:28:26;;;;;;;17.23;7.40;;;;;;;14.39;77.61;99465.72;4953231;29;20040;-89
2022/06/18 02:30:57;;;;;;;16.25;6.90;;;;;;;13.95;77.04;99398.44;4936228;29;20533;-90
2022/06/18 02:33:41;;;;;;;9.70;5.63;;;;;;;14.08;75.25;99405.63;4918342;29;20044;-90
2022/06/18 02:36:20;;;;;;;12.27;5.40;;;;;;;14.29;74.81;99424.88;4918185;29;20040;-92
2022/06/18 02:38:58;;;;;;;7.70;4.18;;;;;;;14.64;73.11;99463.94;4902181;29;20040;-89
2022/06/18 02:41:25;;;;;;;9.38;4.93;;;;;;;14.54;73.59;99437.66;4917172;29;20044;-90
2022/06/18 02:43:53;;;;;;;10.98;4.35;;;;;;;14.63;72.94;99450.50;4933890;29;20040;-90
2022/06/18 02:46:19;;;;;;;17.77;4.32;;;;;;;14.61;71.61;99433.56;4923414;29;20044;-91
2022/06/18 02:48:47;;;;;;;7.28;4.15;;;;;;;14.64;70.58;99419.94;4918261;29;20130;-90
2022/06/18 02:53:42;;;;;;;6.90;3.63;;;;;;;14.83;70.05;99419.41;4918726;29;20107;-89
2022/06/18 02:56:12;;;;;;;7.40;3.55;;;;;;;15.13;69.11;99453.13;4932281;29;20054;-90
2022/06/18 02:58:47;;;;;;;6.90;3.50;;;;;;;15.03;69.87;99426.00;4936336;29;20043;-90
2022/06/18 03:01:19;;;;;;;7.10;3.20;;;;;;;14.93;69.83;99397.00;4919675;29;20055;-92
2022/06/18 03:03:53;;;;;;;7.13;3.08;;;;;;;14.98;68.46;99391.25;4902262;29;20062;-93
2022/06/18 03:06:23;;;;;;;4.07;3.10;;;;;;;15.27;68.88;99437.09;4920314;29;20044;-90
2022/06/18 03:08:54;;;;;;;6.43;3.35;;;;;;;15.24;68.88;99412.19;4907079;29;20067;-94
2022/06/18 03:14:11;;;;;;;5.20;3.05;;;;;;;15.58;67.60;99444.03;4918754;29;20148;-89
2022/06/18 03:16:37;;;;;;;4.72;2.85;;;;;;;15.38;67.46;99398.09;4905420;29;20052;-90
2022/06/18 03:19:05;;;;;;;6.07;2.92;;;;;;;15.47;67.67;99401.56;4934243;29;20048;-94
2022/06/18 03:21:50;;;;;;;6.03;3.00;;;;;;;15.84;66.06;99437.41;4911463;29;20543;-96
2022/06/18 03:24:19;;;;;;;3.72;2.70;;;;;;;15.68;65.99;99413.28;4902620;29;20143;-93
2022/06/18 03:26:46;;;;;;;6.63;2.95;;;;;;;15.59;66.17;99400.75;4901764;29;20051;-91
2022/06/18 03:29:13;;;;;;;14.25;4.95;;;;;;;15.65;65.82;99396.59;4948874;29;20052;-89
2022/06/18 03:31:39;;;;;;;5.57;3.00;;;;;;;15.65;65.12;99380.88;4938185;29;20417;-93
2022/06/18 03:34:05;;;;;;;5.40;2.83;;;;;;;15.81;65.54;99410.53;4920442;29;20043;-88
2022/06/18 03:36:33;;;;;;;9.23;3.10;;;;;;;16.15;64.73;99451.38;4900534;29;20055;-89
2022/06/18 03:39:07;;;;;;;4.60;3.10;;;;;;;15.98;63.62;99424.88;4900972;29;20047;-88
2022/06/18 03:41:34;;;;;;;9.25;3.28;;;;;;;15.86;63.54;99402.00;4924564;29;20044;-88
2022/06/18 03:44:00;;;;;;;7.13;3.10;;;;;;;15.65;63.52;99369.84;4903542;29;20054;-89
2022/06/18 03:46:30;;;;;;;6.05;3.08;;;;;;;15.87;62.84;99390.66;4916391;29;20330;-89
2022/06/18 03:49:06;;;;;;;4.90;2.90;;;;;;;16.07;64.73;99410.16;4916399;29;20059;-89
2022/06/18 03:51:36;;;;;;;4.55;2.80;;;;;;;16.05;62.78;99404.97;4916792;29;20040;-90
2022/06/18 03:54:03;;;;;;;5.15;2.55;;;;;;;16.01;63.30;99387.53;4916600;29;20569;-89
2022/06/18 03:56:32;;;;;;;7.38;3.30;;;;;;;16.06;64.21;99401.09;4932287;29;20048;-89
2022/06/18 03:59:00;;;;;;;4.45;2.63;;;;;;;16.09;61.38;99405.91;4933151;29;20509;-89
2022/06/18 04:01:31;;;;;;;5.18;3.17;;;;;;;16.33;62.11;99429.88;4934845;29;20417;-91
2022/06/18 04:04:01;;;;;;;7.03;2.60;;;;;;;16.01;61.60;99378.47;4950912;29;20517;-90
2022/06/18 04:06:38;;;;;;;15.07;2.92;;;;;;;16.25;61.86;99403.22;4935418;29;20261;-91
2022/06/18 04:09:22;;;;;;;12.95;3.28;;;;;;;16.42;61.63;99426.97;4900889;29;20044;-89
2022/06/18 04:11:50;;;;;;;4.45;2.70;;;;;;;16.18;59.14;99389.22;4915797;29;20066;-91
2022/06/18 04:14:17;;;;;;;5.07;2.45;;;;;;;16.41;59.27;99423.41;4931914;29;20052;-89
2022/06/18 04:17:02;;;;;;;8.68;3.17;;;;;;;16.37;59.32;99402.38;4931788;29;20104;-90
2022/06/18 04:19:29;;;;;;;3.42;2.50;;;;;;;16.46;58.66;99430.66;4919040;29;20067;-88
2022/06/18 04:21:56;;;;;;;4.03;2.50;;;;;;;16.30;58.98;99388.38;4950692;29;20039;-89
2022/06/18 04:24:31;;;;;;;9.18;2.80;;;;;;;16.51;60.11;99405.56;4928429;29;20054;-91
2022/06/18 04:26:58;;;;;;;5.63;2.42;;;;;;;16.50;57.55;99412.22;4935573;29;20028;-89
2022/06/18 04:29:25;;;;;;;5.15;2.78;;;;;;;16.61;57.70;99429.88;4918915;29;20047;-90
2022/06/18 04:31:52;;;;;;;3.85;2.60;;;;;;;16.54;58.28;99401.28;4902772;29;20035;-89
2022/06/18 04:34:19;;;;;;;9.47;3.37;;;;;;;16.56;56.98;99393.47;4936283;29;20050;-90
2022/06/18 04:37:18;;;;;;;13.75;2.60;;;;;;;16.72;57.88;99405.38;4914073;29;20107;-89
2022/06/18 04:39:59;;;;;;;7.18;2.63;;;;;;;16.70;57.45;99398.59;4937333;29;20047;-90
2022/06/18 04:42:34;;;;;;;5.90;2.50;;;;;;;16.67;55.88;99383.53;4937759;29;20501;-90
2022/06/18 04:45:02;;;;;;;4.13;2.47;;;;;;;16.84;57.21;99399.00;4919358;29;20040;-90
2022/06/18 04:47:51;;;;;;;9.70;3.10;;;;;;;17.27;56.29;99447.09;4920650;29;20070;-88
2022/06/18 04:50:25;;;;;;;7.88;2.72;;;;;;;16.85;56.29;99395.09;4949508;29;20039;-89
2022/06/18 04:52:51;;;;;;;7.28;2.67;;;;;;;17.22;55.67;99441.84;4933919;29;20043;-89
2022/06/18 04:55:18;;;;;;;10.43;2.60;;;;;;;17.05;56.50;99412.59;4934932;29;20569;-89
2022/06/18 04:57:45;;;;;;;13.48;3.10;;;;;;;17.32;56.29;99439.38;4941593;28;20093;-89
2022/06/18 05:00:12;;;;;;;7.63;2.78;;;;;;;17.14;55.92;99425.06;4927821;29;20050;-89
2022/06/18 05:02:58;;;;;;;8.90;3.03;;;;;;;17.16;55.93;99413.69;4937343;29;20097;-90
2022/06/18 05:05:36;;;;;;;;;;;;;;;17.55;55.03;99469.19;4936950;29;20038;-89
2022/06/18 05:08:35;;;;;;;6.28;2.70;;;;;;;17.10;57.18;99381.94;4866612;29;20500;-90
2022/06/18 05:11:11;;;;;;;6.22;2.78;;;;;;;17.30;54.74;99394.72;4845492;29;20096;-91
2022/06/18 05:13:47;;;;;;;8.15;2.72;;;;;;;17.56;56.07;99413.53;4843288;29;20041;-87
2022/06/18 05:16:33;;;;;;;;;;;;;;;18.05;57.01;99471.22;4869825;29;20052;-93
2022/06/18 05:18:59;;;;;;;10.43;2.80;;;;;;;17.68;56.48;99404.34;4860094;29;19967;-90
2022/06/18 05:21:26;;;;;;;11.43;2.38;;;;;;;17.79;51.71;99424.78;4860193;29;20161;-91
2022/06/18 05:23:55;;;;;;;5.85;2.42;;;;;;;17.84;51.36;99416.19;4859241;29;20570;-90
2022/06/18 05:26:23;;;;;;;11.07;3.00;;;;;;;17.72;52.63;99415.47;4857329;29;20045;-92
2022/06/18 05:28:50;;;;;;;9.20;2.65;;;;;;;17.95;53.59;99446.88;4871824;29;20037;-90
2022/06/18 05:31:17;;;;;;;13.65;2.55;;;;;;;17.63;51.35;99399.06;4852140;29;20124;-90
2022/06/18 05:33:44;;;;;;;6.65;2.30;;;;;;;17.83;49.31;99445.00;4866420;29;20052;-89
2022/06/18 05:36:19;;;;;;;7.53;2.05;;;;;;;17.68;49.02;99422.88;4852915;29;20446;-92
2022/06/18 05:38:49;;;;;;;15.70;2.90;;;;;;;18.02;50.44;99466.41;4855664;29;20530;-92
2022/06/18 05:41:15;;;;;;;20.38;2.50;;;;;;;17.77;49.80;99432.63;4843797;29;20044;-89
2022/06/18 05:43:42;;;;;;;9.32;2.22;;;;;;;18.12;49.90;99464.25;4871401;29;20453;-90
2022/06/18 05:46:11;;;;;;;11.85;3.30;;;;;;;17.91;50.09;99443.22;4930364;29;20040;-90
2022/06/18 05:48:37;;;;;;;24.00;3.42;;;;;;;18.07;51.21;99443.19;4905706;29;20130;-89
2022/06/18 05:51:07;;;;;;;10.18;2.70;;;;;;;18.45;53.00;99492.28;4921035;29;20046;-90
2022/06/18 05:53:33;;;;;;;16.77;2.67;;;;;;;18.19;51.87;99439.50;4943978;29;20132;-91
2022/06/18 05:56:18;;;;;;;9.10;2.92;;;;;;;18.45;49.94;99458.28;4928833;29;20083;-89
2022/06/18 05:59:11;;;;;;;18.02;4.07;;;;;;;18.29;50.06;99459.13;4916862;29;20058;-89
2022/06/18 06:01:39;;;;;;;17.20;3.28;;;;;;;18.27;51.63;99441.25;4929594;29;20152;-88
2022/06/18 06:04:05;;;;;;;18.80;3.53;;;;;;;18.43;49.58;99457.84;4915424;29;20042;-89
2022/06/18 06:06:32;;;;;;;4.50;1.92;;;;;;;18.58;50.22;99470.03;4897575;29;20043;-88
2022/06/18 06:09:01;;;;;;;16.23;3.60;;;;;;;18.44;50.21;99431.75;4917351;29;20043;-87
2022/06/18 06:11:32;;;;;;;5.55;2.38;;;;;;;18.51;47.79;99426.38;4925402;29;20500;-87
2022/06/18 06:14:02;;;;;;;10.27;2.08;;;;;;;18.55;49.32;99430.03;4937696;29;20417;-87
2022/06/18 06:16:29;;;;;;;;;;;;;;;18.92;48.81;99485.00;4947081;29;20122;-86
2022/06/18 06:19:01;;;;;;;8.18;2.10;;;;;;;18.85;48.02;99469.03;4946995;29;19930;-86
2022/06/18 06:21:27;;;;;;;17.00;2.50;;;;;;;18.83;48.05;99481.66;4932792;29;20044;-85
2022/06/18 06:23:54;;;;;;;9.43;2.92;;;;;;;18.78;47.30;99457.81;4912969;29;20577;-86
2022/06/18 06:26:27;;;;;;;;;;;;;;;18.99;46.80;99482.38;4913466;29;20052;-84
2022/06/18 06:28:53;;;;;;;12.77;3.08;;;;;;;18.91;48.12;99461.25;4913673;29;19930;-84
2022/06/18 06:31:19;;;;;;;13.50;2.40;;;;;;;19.03;49.26;99461.06;4932194;29;20039;-84
2022/06/18 06:33:46;;;;;;;33.88;4.18;;;;;;;19.04;47.06;99484.03;4932355;29;20056;-84
2022/06/18 06:36:12;;;;;;;16.77;2.83;;;;;;;18.98;45.46;99483.56;4930432;29;20135;-85
2022/06/18 06:38:39;;;;;;;12.57;3.38;;;;;;;18.88;46.74;99462.78;4929952;29;20094;-86
2022/06/18 06:41:15;;;;;;;15.15;3.38;;;;;;;18.79;45.60;99451.09;4916235;29;20672;-85
2022/06/18 06:43:43;;;;;;;32.58;4.90;;;;;;;19.06;48.08;99476.16;4932293;29;20111;-85
2022/06/18 06:46:13;;;;;;;37.77;4.77;;;;;;;19.01;46.58;99455.91;4935219;29;20115;-86
2022/06/18 06:48:39;;;;;;;16.60;3.33;;;;;;;19.18;47.35;99464.94;4932331;29;20115;-86
2022/06/18 06:51:15;;;;;;;15.87;3.53;;;;;;;19.43;46.87;99491.13;4917386;29;20510;-87
2022/06/18 06:53:42;;;;;;;10.23;3.27;;;;;;;19.48;47.23;99485.28;4918898;29;20054;-85
2022/06/18 06:58:55;;;;;;;20.58;3.30;;;;;;;19.36;46.72;99460.50;4951769;29;19927;-84
2022/06/18 07:01:21;;;;;;;4.47;2.30;;;;;;;19.31;46.12;99446.16;4939615;29;20087;-84
2022/06/18 07:03:49;;;;;;;12.32;3.03;;;;;;;19.53;45.88;99478.63;4935067;29;20107;-84
2022/06/18 07:06:16;;;;;;;10.17;2.50;;;;;;;19.33;47.02;99427.19;4918922;29;20528;-84
2022/06/18 07:08:43;;;;;;;7.22;2.30;;;;;;;19.61;45.07;99463.72;4919080;29;20371;-85
2022/06/18 07:11:12;;;;;;;30.33;3.83;;;;;;;19.79;44.72;99479.91;4934798;29;20039;-84
2022/06/18 07:13:39;;;;;;;10.40;2.45;;;;;;;19.61;43.33;99454.63;4953676;29;20095;-84
2022/06/18 07:16:06;;;;;;;9.35;2.53;;;;;;;19.76;43.95;99473.13;4936224;29;20050;-84
2022/06/18 07:18:35;;;;;;;5.38;2.20;;;;;;;19.87;44.46;99479.66;4952829;29;20039;-83
2022/06/18 07:21:03;;;;;;;9.80;3.00;;;;;;;19.92;44.55;99456.34;4955831;29;20066;-83
2022/06/18 07:23:31;;;;;;;5.70;2.20;;;;;;;20.00;45.69;99482.22;4933542;29;20047;-84
2022/06/18 07:25:57;;;;;;;6.10;2.00;;;;;;;20.05;44.77;99479.94;4936353;29;20047;-84
2022/06/18 07:28:24;;;;;;;4.63;2.08;;;;;;;19.77;44.49;99424.81;4936940;29;20119;-80
2022/06/18 07:30:50;;;;;;;7.03;2.00;;;;;;;20.10;44.04;99462.19;4939259;29;20039;-83
2022/06/18 07:33:19;;;;;;;;;;;;;;;20.19;44.86;99482.91;4953208;29;20039;-85
2022/06/18 07:35:45;;;;;;;6.80;2.55;;;;;;;20.15;43.57;99475.72;4951629;29;19923;-84
2022/06/18 07:38:11;;;;;;;8.73;3.35;;;;;;;20.16;43.82;99452.34;4950955;29;20063;-84
2022/06/18 07:40:46;;;;;;;9.40;2.97;;;;;;;20.22;43.72;99456.38;4934841;29;20074;-82
2022/06/18 07:43:19;;;;;;;6.95;2.47;;;;;;;20.26;44.48;99450.88;4949549;29;20785;-83
2022/06/18 07:45:46;;;;;;;5.28;2.30;;;;;;;20.10;43.38;99446.31;4947420;28;20054;-84
2022/06/18 07:48:14;;;;;;;14.63;2.92;;;;;;;20.35;43.72;99473.63;4949193;29;20044;-84
2022/06/18 07:50:46;;;;;;;16.38;3.88;;;;;;;20.28;44.14;99435.47;4932692;29;20580;-82
2022/06/18 07:53:20;;;;;;;11.98;2.70;;;;;;;20.53;42.62;99455.28;4951666;29;20107;-83
2022/06/18 07:55:47;;;;;;;3.67;2.35;;;;;;;20.55;43.40;99444.56;4952971;29;20453;-83
2022/06/18 07:58:14;;;;;;;4.88;2.30;;;;;;;20.49;43.42;99451.59;4953039;29;20071;-83
2022/06/18 08:00:42;;;;;;;21.63;4.07;;;;;;;20.55;41.89;99441.81;4950950;29;20047;-83
2022/06/18 08:03:10;;;;;;;10.95;2.47;;;;;;;20.65;42.39;99446.69;4952563;29;20114;-85
2022/06/18 08:05:37;;;;;;;6.97;2.65;;;;;;;20.54;42.99;99408.88;4952395;29;20054;-84
2022/06/18 08:08:04;;;;;;;7.93;2.50;;;;;;;20.75;43.84;99461.91;4943111;29;20039;-83
2022/06/18 08:10:32;;;;;;;7.82;2.20;;;;;;;20.56;40.51;99454.53;4952952;28;20043;-85
2022/06/18 08:12:59;;;;;;;7.90;2.30;;;;;;;20.50;42.13;99433.78;4936908;29;20635;-85
2022/06/18 08:15:26;;;;;;;5.60;1.90;;;;;;;20.52;42.47;99436.22;4937011;29;20421;-87
2022/06/18 08:17:52;;;;;;;10.00;3.22;;;;;;;20.56;42.71;99425.94;4958444;28;20130;-94
2022/06/18 08:20:19;;;;;;;5.70;2.45;;;;;;;20.91;41.98;99436.69;4940048;29;20035;-90
2022/06/18 08:22:48;;;;;;;5.80;3.25;;;;;;;20.88;42.13;99432.69;4923187;29;20075;-89
2022/06/18 08:25:18;;;;;;;10.90;3.53;;;;;;;20.90;41.09;99451.78;4944815;29;20031;-93
2022/06/18 08:27:45;;;;;;;10.63;3.10;;;;;;;20.40;42.54;99410.25;4923862;29;20034;-90
2022/06/18 08:30:13;;;;;;;6.40;2.58;;;;;;;20.15;43.06;99409.09;4940243;29;20062;-95
2022/06/18 08:32:39;;;;;;;8.88;2.42;;;;;;;20.26;41.91;99445.34;4960259;29;20465;-96
2022/06/18 08:35:06;;;;;;;8.52;2.63;;;;;;;20.19;42.45;99444.06;4960596;29;20043;-86
2022/06/18 08:37:33;;;;;;;5.90;2.30;;;;;;;20.39;42.60;99468.94;4956114;29;20050;-87
2022/06/18 08:40:00;;;;;;;8.82;2.40;;;;;;;20.26;43.76;99400.91;4954827;28;20051;-89
2022/06/18 08:42:39;;;;;;;14.10;2.55;;;;;;;20.84;43.47;99465.19;4952647;29;20065;-85
2022/06/18 08:45:08;;;;;;;8.60;2.83;;;;;;;20.95;41.73;99453.41;4933113;29;20044;-90
2022/06/18 08:48:05;;;;;;;7.70;2.55;;;;;;;21.10;42.66;99463.50;4921408;29;20066;-90
2022/06/18 08:51:02;;;;;;;7.57;2.47;;;;;;;20.98;40.65;99460.97;4932376;29;20039;-92
2022/06/18 08:54:00;;;;;;;14.10;3.75;;;;;;;20.92;43.14;99460.50;4944339;29;20070;-87
2022/06/18 08:56:39;;;;;;;12.48;3.55;;;;;;;20.84;42.93;99467.19;4891067;29;20048;-86
2022/06/18 08:59:46;;;;;;;8.98;3.05;;;;;;;20.75;41.64;99461.09;4862507;29;20063;-85
2022/06/18 09:02:45;;;;;;;10.85;4.00;;;;;;;20.65;44.12;99462.56;4899197;29;20125;-86
2022/06/18 09:05:19;;;;;;;5.60;3.25;;;;;;;20.54;42.61;99467.97;4813317;29;20131;-88
2022/06/18 09:07:57;;;;;;;26.70;3.60;;;;;;;20.61;44.57;99464.50;4786875;29;20050;-86
2022/06/18 09:10:38;;;;;;;6.57;3.20;;;;;;;20.60;43.01;99435.94;4802324;29;20082;-87
2022/06/18 09:13:17;;;;;;;12.95;2.80;;;;;;;20.84;41.11;99458.84;4805266;29;20047;-89
2022/06/18 09:15:50;;;;;;;7.00;2.90;;;;;;;20.90;41.67;99434.31;4809129;29;20050;-86
2022/06/18 09:18:42;;;;;;;7.85;2.60;;;;;;;21.25;45.17;99437.44;4824138;29;20051;-86
2022/06/18 09:21:18;;;;;;;6.85;2.65;;;;;;;21.20;40.95;99456.47;4824552;29;20022;-86
2022/06/18 09:24:15;;;;;;;14.38;5.43;;;;;;;21.11;44.52;99454.78;4809030;29;20054;-86
2022/06/18 09:26:47;;;;;;;14.50;5.05;;;;;;;21.08;42.05;99455.53;4808175;29;20059;-84
2022/06/18 09:29:37;;;;;;;19.25;4.35;;;;;;;21.06;43.02;99449.56;4800108;29;20054;-84
2022/06/18 09:32:31;;;;;;;19.38;4.53;;;;;;;21.06;42.72;99454.34;4828242;29;20052;-85
2022/06/18 09:35:06;;;;;;;17.67;5.30;;;;;;;21.08;43.36;99457.53;4848784;29;20054;-85
2022/06/18 09:37:42;;;;;;;14.80;5.40;;;;;;;21.27;43.35;99407.28;4842601;29;20041;-85
2022/06/18 09:40:19;;;;;;;12.18;3.80;;;;;;;21.81;41.29;99433.59;4834277;29;20046;-86
2022/06/18 09:42:55;;;;;;;6.00;3.17;;;;;;;22.07;40.52;99445.72;4947868;28;20118;-86
2022/06/18 09:45:28;;;;;;;10.35;4.15;;;;;;;22.11;40.80;99440.19;4932226;29;20087;-88
2022/06/18 09:47:55;;;;;;;7.47;2.88;;;;;;;21.66;40.28;99409.66;4934822;29;20035;-89
2022/06/18 09:50:32;;;;;;;7.05;2.55;;;;;;;21.54;41.71;99419.06;4935299;29;20059;-85
2022/06/18 09:53:15;;;;;;;6.32;3.85;;;;;;;21.50;38.95;99445.28;4940490;29;20048;-88
2022/06/18 09:55:51;;;;;;;8.88;2.80;;;;;;;21.11;41.46;99417.84;4948245;29;20039;-86
2022/06/18 09:58:25;;;;;;;13.35;5.38;;;;;;;21.21;41.27;99439.41;4928241;29;20055;-90
2022/06/18 10:09:03;;;;;;;8.18;2.90;;;;;;;21.44;40.91;99416.22;4953809;28;20404;-83
2022/06/18 10:11:29;;;;;;;11.65;2.95;;;;;;;21.79;40.98;99422.06;4956305;28;20042;-84
2022/06/18 10:16:35;;;;;;;13.40;3.55;;;;;;;22.20;41.94;99435.91;4956459;29;20062;-91
2022/06/18 10:19:29;;;;;;;9.50;3.20;;;;;;;22.05;41.39;99395.19;4939038;29;20082;-85
2022/06/18 10:22:18;;;;;;;15.98;3.50;;;;;;;22.23;38.34;99412.06;4929671;29;20142;-87
2022/06/18 10:25:27;;;;;;;7.10;3.50;;;;;;;22.46;40.03;99412.56;4939000;29;20126;-88
2022/06/18 10:31:00;;;;;;;7.75;2.92;;;;;;;22.39;37.65;99431.25;4941724;29;20086;-85
2022/06/18 10:34:18;;;;;;;9.98;3.50;;;;;;;22.40;37.77;99416.13;4923598;29;20308;-87
2022/06/18 10:36:53;;;;;;;16.35;4.68;;;;;;;22.34;38.79;99432.38;4904060;29;20126;-86
2022/06/18 10:39:28;;;;;;;17.48;5.03;;;;;;;21.93;38.72;99392.75;4938247;29;20484;-88
2022/06/18 10:42:18;;;;;;;4.57;3.10;;;;;;;21.95;36.56;99424.59;4939150;29;20181;-87
2022/06/18 10:45:12;;;;;;;10.57;2.78;;;;;;;22.23;37.83;99437.91;4956377;29;20043;-88
2022/06/18 10:47:42;;;;;;;5.22;2.28;;;;;;;22.61;35.30;99429.34;4955985;28;20054;-89
2022/06/18 10:55:21;;;;;;;5.00;3.30;;;;;;;22.81;37.15;99432.59;4956727;29;20044;-88
2022/06/18 10:57:49;;;;;;;6.63;2.70;;;;;;;22.80;35.30;99431.81;4951233;29;20086;-88
2022/06/18 11:00:23;;;;;;;12.77;2.95;;;;;;;22.96;35.15;99432.28;4936760;29;20047;-88
2022/06/18 11:02:53;;;;;;;7.18;2.72;;;;;;;22.97;35.53;99421.94;4935677;29;20039;-88
2022/06/18 11:05:25;;;;;;;7.45;3.50;;;;;;;23.26;35.02;99424.78;4936242;29;20537;-88
2022/06/18 11:07:53;;;;;;;15.23;3.90;;;;;;;23.45;36.29;99421.63;4912713;29;20047;-86
2022/06/18 11:10:29;;;;;;;20.80;3.78;;;;;;;23.65;36.83;99416.47;4948413;29;20134;-89
2022/06/18 11:12:57;;;;;;;16.63;3.60;;;;;;;23.54;36.13;99415.63;4947537;29;20087;-87
2022/06/18 11:15:36;;;;;;;12.25;3.38;;;;;;;23.10;36.57;99380.53;4948360;29;20134;-88
2022/06/18 11:18:19;;;;;;;11.35;3.00;;;;;;;23.11;36.89;99405.25;4917111;29;20032;-86
2022/06/18 11:21:30;;;;;;;17.13;3.38;;;;;;;22.93;34.34;99423.91;4935098;29;20055;-88
2022/06/18 11:24:29;;;;;;;12.80;3.17;;;;;;;22.75;35.31;99410.69;4912929;29;20057;-88
2022/06/18 11:27:03;;;;;;;12.73;2.97;;;;;;;22.57;37.94;99406.25;4840617;29;20069;-88
2022/06/18 11:29:49;;;;;;;11.70;3.03;;;;;;;22.42;36.33;99406.19;4838684;29;20057;-86
2022/06/18 11:32:27;;;;;;;5.40;3.03;;;;;;;22.07;36.61;99392.81;4859180;29;20053;-87
2022/06/18 11:35:09;;;;;;;7.70;3.20;;;;;;;22.12;38.20;99420.31;4858662;29;20101;-87
2022/06/18 11:37:37;;;;;;;6.90;3.00;;;;;;;22.02;37.78;99419.06;4843083;29;20052;-88
2022/06/18 11:40:07;;;;;;;8.20;3.20;;;;;;;21.83;36.89;99418.53;4858745;29;20045;-88
2022/06/18 11:42:50;;;;;;;18.02;3.42;;;;;;;21.72;37.30;99404.50;4851586;29;20202;-86
2022/06/18 11:45:35;;;;;;;20.23;4.40;;;;;;;21.70;38.79;99404.91;4858763;29;20209;-87
2022/06/18 11:50:46;;;;;;;12.73;2.85;;;;;;;21.81;39.71;99391.84;4858424;29;20561;-87
2022/06/18 11:53:37;;;;;;;12.02;3.50;;;;;;;22.22;38.09;99390.97;4858858;29;20053;-87
2022/06/18 11:56:18;;;;;;;8.15;3.45;;;;;;;22.75;38.27;99391.19;4858772;29;20041;-87
2022/06/18 12:01:25;;;;;;;15.52;3.08;;;;;;;23.06;36.88;99371.38;4854937;29;20053;-89
2022/06/18 12:04:05;;;;;;;14.30;3.28;;;;;;;23.22;38.15;99366.22;4894179;29;20083;-86
2022/06/18 12:06:50;;;;;;;11.85;3.55;;;;;;;23.51;36.56;99374.59;4915547;29;20532;-87
2022/06/18 12:09:17;;;;;;;11.40;3.20;;;;;;;23.38;36.12;99343.53;4899254;29;20048;-87
2022/06/18 12:11:49;;;;;;;6.28;3.05;;;;;;;23.57;35.71;99384.16;4916197;29;20047;-88
2022/06/18 12:14:37;;;;;;;12.18;3.75;;;;;;;23.30;36.30;99353.06;4931154;29;20434;-87
2022/06/18 12:17:13;;;;;;;11.07;2.75;;;;;;;23.35;36.10;99356.25;4914990;29;20066;-86
2022/06/18 12:19:59;;;;;;;4.45;2.70;;;;;;;23.38;36.08;99357.47;4915499;29;20052;-88
2022/06/18 12:25:17;;;;;;;14.95;3.50;;;;;;;23.51;37.20;99346.69;4916697;29;19930;-88
2022/06/18 12:28:00;;;;;;;8.60;3.83;;;;;;;23.14;35.98;99331.94;4930631;29;20107;-87
2022/06/18 12:30:36;;;;;;;7.78;2.80;;;;;;;23.62;36.07;99348.28;4915006;29;20043;-87
2022/06/18 12:33:28;;;;;;;28.45;3.20;;;;;;;23.97;35.35;99340.25;4930566;29;20076;-86
2022/06/18 12:36:08;;;;;;;8.02;3.22;;;;;;;24.16;34.99;99356.56;4915718;29;20048;-86
2022/06/18 12:38:59;;;;;;;10.68;3.25;;;;;;;23.81;34.78;99355.47;4930794;29;20601;-87
2022/06/18 12:41:56;;;;;;;16.60;3.60;;;;;;;23.46;35.41;99350.69;4914459;29;20044;-87